sensor_id;sensor_type;location;lat;lon;timestamp;pressure;altitude;pressure_sealevel;temperature;humidity
77192;BME280;66172;48.526;8.078;2024-03-29T00:01:15;97748.81;;;7.19;68.17
77192;BME280;66172;48.526;8.078;2024-03-29T00:03:40;97741.97;;;7.25;68.09
77192;BME280;66172;48.526;8.078;2024-03-29T00:06:07;97747.56;;;7.35;68.00
77192;BME280;66172;48.526;8.078;2024-03-29T00:08:33;97733.84;;;7.44;67.52
77192;BME280;66172;48.526;8.078;2024-03-29T00:10:59;97720.31;;;7.44;67.93
77192;BME280;66172;48.526;8.078;2024-03-29T00:13:25;97708.72;;;7.43;67.57
77192;BME280;66172;48.526;8.078;2024-03-29T00:15:51;97702.53;;;7.43;67.06
77192;BME280;66172;48.526;8.078;2024-03-29T00:18:17;97675.19;;;7.48;67.42
77192;BME280;66172;48.526;8.078;2024-03-29T00:20:42;97676.16;;;7.59;66.46
77192;BME280;66172;48.526;8.078;2024-03-29T00:23:08;97659.31;;;7.46;67.62
77192;BME280;66172;48.526;8.078;2024-03-29T00:25:34;97651.31;;;7.53;67.67
77192;BME280;66172;48.526;8.078;2024-03-29T00:28:00;97651.63;;;7.48;67.53
77192;BME280;66172;48.526;8.078;2024-03-29T00:30:26;97647.06;;;7.52;67.92
77192;BME280;66172;48.526;8.078;2024-03-29T00:32:52;97659.50;;;7.57;68.09
77192;BME280;66172;48.526;8.078;2024-03-29T00:35:18;97659.63;;;7.41;68.70
77192;BME280;66172;48.526;8.078;2024-03-29T00:37:45;97661.56;;;7.41;67.49
77192;BME280;66172;48.526;8.078;2024-03-29T00:40:11;97653.50;;;7.22;68.05
77192;BME280;66172;48.526;8.078;2024-03-29T00:42:37;97653.28;;;7.57;66.86
77192;BME280;66172;48.526;8.078;2024-03-29T00:45:04;97646.84;;;7.65;66.04
77192;BME280;66172;48.526;8.078;2024-03-29T00:47:29;97650.88;;;7.74;65.53
77192;BME280;66172;48.526;8.078;2024-03-29T00:49:55;97631.38;;;7.88;64.60
77192;BME280;66172;48.526;8.078;2024-03-29T00:52:21;97623.25;;;7.88;65.05
77192;BME280;66172;48.526;8.078;2024-03-29T00:54:47;97614.84;;;7.67;65.68
77192;BME280;66172;48.526;8.078;2024-03-29T00:57:13;97602.84;;;7.68;64.26
77192;BME280;66172;48.526;8.078;2024-03-29T00:59:41;97601.31;;;7.67;64.55
77192;BME280;66172;48.526;8.078;2024-03-29T01:02:09;97618.22;;;7.86;64.75
77192;BME280;66172;48.526;8.078;2024-03-29T01:04:35;97645.63;;;7.85;64.75
77192;BME280;66172;48.526;8.078;2024-03-29T01:07:01;97631.72;;;7.60;65.99
77192;BME280;66172;48.526;8.078;2024-03-29T01:09:27;97632.03;;;7.55;65.45
77192;BME280;66172;48.526;8.078;2024-03-29T01:11:53;97636.47;;;7.67;64.71
77192;BME280;66172;48.526;8.078;2024-03-29T01:14:19;97631.72;;;7.86;63.92
77192;BME280;66172;48.526;8.078;2024-03-29T01:16:45;97622.09;;;8.15;62.08
77192;BME280;66172;48.526;8.078;2024-03-29T01:19:11;97622.53;;;8.21;61.70
77192;BME280;66172;48.526;8.078;2024-03-29T01:21:37;97631.13;;;8.26;61.14
77192;BME280;66172;48.526;8.078;2024-03-29T01:24:03;97625.28;;;8.24;61.56
77192;BME280;66172;48.526;8.078;2024-03-29T01:26:30;97621.44;;;8.25;61.13
77192;BME280;66172;48.526;8.078;2024-03-29T01:28:56;97620.22;;;8.19;61.75
77192;BME280;66172;48.526;8.078;2024-03-29T01:31:23;97628.50;;;8.30;60.98
77192;BME280;66172;48.526;8.078;2024-03-29T01:33:49;97629.69;;;8.32;61.26
77192;BME280;66172;48.526;8.078;2024-03-29T01:36:16;97621.44;;;8.55;58.87
77192;BME280;66172;48.526;8.078;2024-03-29T01:38:41;97606.34;;;8.54;59.30
77192;BME280;66172;48.526;8.078;2024-03-29T01:41:08;97613.78;;;8.61;58.88
77192;BME280;66172;48.526;8.078;2024-03-29T01:43:34;97623.50;;;8.65;58.76
77192;BME280;66172;48.526;8.078;2024-03-29T01:46:00;97616.88;;;8.63;58.59
77192;BME280;66172;48.526;8.078;2024-03-29T01:48:26;97627.84;;;8.73;57.82
77192;BME280;66172;48.526;8.078;2024-03-29T01:50:53;97614.97;;;9.00;55.42
77192;BME280;66172;48.526;8.078;2024-03-29T01:53:20;97616.34;;;9.24;54.22
77192;BME280;66172;48.526;8.078;2024-03-29T01:55:46;97617.97;;;9.32;54.07
77192;BME280;66172;48.526;8.078;2024-03-29T01:58:13;97622.38;;;9.50;52.34
77192;BME280;66172;48.526;8.078;2024-03-29T02:00:52;97621.19;;;9.48;52.74
77192;BME280;66172;48.526;8.078;2024-03-29T02:03:19;97614.25;;;9.50;52.71
77192;BME280;66172;48.526;8.078;2024-03-29T02:05:46;97614.28;;;9.58;52.33
77192;BME280;66172;48.526;8.078;2024-03-29T02:08:13;97623.63;;;9.60;52.34
77192;BME280;66172;48.526;8.078;2024-03-29T02:10:39;97622.44;;;9.58;52.07
77192;BME280;66172;48.526;8.078;2024-03-29T02:13:05;97639.56;;;9.65;51.89
77192;BME280;66172;48.526;8.078;2024-03-29T02:15:31;97656.66;;;9.73;51.35
77192;BME280;66172;48.526;8.078;2024-03-29T02:17:57;97637.66;;;9.73;51.51
77192;BME280;66172;48.526;8.078;2024-03-29T02:20:24;97634.16;;;9.69;51.30
77192;BME280;66172;48.526;8.078;2024-03-29T02:22:53;97637.31;;;9.74;51.50
77192;BME280;66172;48.526;8.078;2024-03-29T02:25:20;97626.00;;;9.69;51.52
77192;BME280;66172;48.526;8.078;2024-03-29T02:27:50;97633.09;;;9.80;50.41
77192;BME280;66172;48.526;8.078;2024-03-29T02:30:17;97641.28;;;9.91;49.86
77192;BME280;66172;48.526;8.078;2024-03-29T02:32:43;97643.00;;;10.13;48.86
77192;BME280;66172;48.526;8.078;2024-03-29T02:35:09;97660.44;;;10.12;48.79
77192;BME280;66172;48.526;8.078;2024-03-29T02:37:36;97662.13;;;10.27;48.37
77192;BME280;66172;48.526;8.078;2024-03-29T02:40:05;97648.94;;;10.29;48.32
77192;BME280;66172;48.526;8.078;2024-03-29T02:42:32;97643.84;;;10.28;48.94
77192;BME280;66172;48.526;8.078;2024-03-29T02:44:58;97645.81;;;10.27;48.50
77192;BME280;66172;48.526;8.078;2024-03-29T02:47:24;97658.28;;;10.39;47.67
77192;BME280;66172;48.526;8.078;2024-03-29T02:49:50;97640.06;;;10.46;47.24
77192;BME280;66172;48.526;8.078;2024-03-29T02:52:16;97630.41;;;10.56;48.20
77192;BME280;66172;48.526;8.078;2024-03-29T02:54:42;97631.19;;;10.60;47.16
77192;BME280;66172;48.526;8.078;2024-03-29T02:57:07;97627.72;;;10.63;46.45
77192;BME280;66172;48.526;8.078;2024-03-29T02:59:33;97631.59;;;10.59;47.64
77192;BME280;66172;48.526;8.078;2024-03-29T03:01:59;97634.34;;;10.66;46.96
77192;BME280;66172;48.526;8.078;2024-03-29T03:04:25;97618.38;;;10.57;47.50
77192;BME280;66172;48.526;8.078;2024-03-29T03:06:51;97596.66;;;10.64;47.13
77192;BME280;66172;48.526;8.078;2024-03-29T03:09:17;97597.47;;;10.68;46.85
77192;BME280;66172;48.526;8.078;2024-03-29T03:12:01;97584.31;;;11.02;44.54
77192;BME280;66172;48.526;8.078;2024-03-29T03:14:27;97585.09;;;10.99;44.56
77192;BME280;66172;48.526;8.078;2024-03-29T03:16:53;97582.00;;;11.08;44.32
77192;BME280;66172;48.526;8.078;2024-03-29T03:19:19;97568.78;;;11.02;44.77
77192;BME280;66172;48.526;8.078;2024-03-29T03:21:45;97589.75;;;11.06;44.69
77192;BME280;66172;48.526;8.078;2024-03-29T03:24:11;97604.94;;;11.17;44.19
77192;BME280;66172;48.526;8.078;2024-03-29T03:26:39;97590.56;;;11.20;43.68
77192;BME280;66172;48.526;8.078;2024-03-29T03:29:06;97569.56;;;11.10;44.95
77192;BME280;66172;48.526;8.078;2024-03-29T03:31:33;97573.44;;;11.16;44.18
77192;BME280;66172;48.526;8.078;2024-03-29T03:33:59;97580.06;;;11.15;44.09
77192;BME280;66172;48.526;8.078;2024-03-29T03:36:25;97595.63;;;11.15;44.21
77192;BME280;66172;48.526;8.078;2024-03-29T03:38:51;97585.91;;;11.24;43.55
77192;BME280;66172;48.526;8.078;2024-03-29T03:41:17;97576.59;;;11.29;43.02
77192;BME280;66172;48.526;8.078;2024-03-29T03:43:42;97573.44;;;11.30;42.83
77192;BME280;66172;48.526;8.078;2024-03-29T03:46:08;97570.34;;;11.28;44.00
77192;BME280;66172;48.526;8.078;2024-03-29T03:48:34;97570.34;;;11.25;44.22
77192;BME280;66172;48.526;8.078;2024-03-29T03:51:00;97587.06;;;11.30;44.24
77192;BME280;66172;48.526;8.078;2024-03-29T03:53:26;97596.41;;;11.26;44.56
77192;BME280;66172;48.526;8.078;2024-03-29T03:55:52;97602.59;;;11.26;45.29
77192;BME280;66172;48.526;8.078;2024-03-29T03:58:18;97602.22;;;11.24;45.20
77192;BME280;66172;48.526;8.078;2024-03-29T04:00:44;97596.00;;;11.17;44.12
77192;BME280;66172;48.526;8.078;2024-03-29T04:03:09;97587.84;;;11.31;42.97
77192;BME280;66172;48.526;8.078;2024-03-29T04:05:37;97569.56;;;11.38;43.83
77192;BME280;66172;48.526;8.078;2024-03-29T04:08:04;97565.28;;;11.30;43.81
77192;BME280;66172;48.526;8.078;2024-03-29T04:10:30;97569.56;;;11.42;44.05
77192;BME280;66172;48.526;8.078;2024-03-29T04:12:56;97564.91;;;11.35;44.74
77192;BME280;66172;48.526;8.078;2024-03-29T04:15:21;97557.53;;;11.32;44.50
77192;BME280;66172;48.526;8.078;2024-03-29T04:17:47;97553.25;;;11.28;44.59
77192;BME280;66172;48.526;8.078;2024-03-29T04:20:13;97563.75;;;11.36;44.39
77192;BME280;66172;48.526;8.078;2024-03-29T04:22:39;97562.19;;;11.57;43.84
77192;BME280;66172;48.526;8.078;2024-03-29T04:25:05;97548.94;;;11.51;44.03
77192;BME280;66172;48.526;8.078;2024-03-29T04:27:31;97545.47;;;11.37;44.73
77192;BME280;66172;48.526;8.078;2024-03-29T04:29:58;97550.53;;;11.31;45.80
77192;BME280;66172;48.526;8.078;2024-03-29T04:32:24;97547.81;;;11.14;46.89
77192;BME280;66172;48.526;8.078;2024-03-29T04:34:50;97563.34;;;11.34;46.13
77192;BME280;66172;48.526;8.078;2024-03-29T04:37:17;97563.75;;;11.15;46.33
77192;BME280;66172;48.526;8.078;2024-03-29T04:39:44;97568.41;;;11.18;46.72
77192;BME280;66172;48.526;8.078;2024-03-29T04:42:11;97562.56;;;11.16;46.02
77192;BME280;66172;48.526;8.078;2024-03-29T04:44:37;97559.84;;;11.20;45.43
77192;BME280;66172;48.526;8.078;2024-03-29T04:47:03;97549.38;;;11.22;44.95
77192;BME280;66172;48.526;8.078;2024-03-29T04:49:29;97552.88;;;11.22;45.63
77192;BME280;66172;48.526;8.078;2024-03-29T04:52:03;97564.50;;;11.40;45.60
77192;BME280;66172;48.526;8.078;2024-03-29T04:54:30;97563.75;;;11.33;44.60
77192;BME280;66172;48.526;8.078;2024-03-29T04:56:56;97566.84;;;11.38;44.74
77192;BME280;66172;48.526;8.078;2024-03-29T04:59:22;97577.34;;;11.40;44.53
77192;BME280;66172;48.526;8.078;2024-03-29T05:01:49;97573.84;;;11.53;44.87
77192;BME280;66172;48.526;8.078;2024-03-29T05:04:19;97568.78;;;11.45;44.72
77192;BME280;66172;48.526;8.078;2024-03-29T05:06:59;97571.91;;;11.36;44.47
77192;BME280;66172;48.526;8.078;2024-03-29T05:09:26;97577.38;;;11.36;44.95
77192;BME280;66172;48.526;8.078;2024-03-29T05:11:52;97583.56;;;11.47;45.42
77192;BME280;66172;48.526;8.078;2024-03-29T05:14:21;97579.31;;;11.43;46.03
77192;BME280;66172;48.526;8.078;2024-03-29T05:16:48;97578.91;;;11.30;46.47
77192;BME280;66172;48.526;8.078;2024-03-29T05:19:16;97599.09;;;11.43;46.67
77192;BME280;66172;48.526;8.078;2024-03-29T05:21:42;97591.72;;;11.30;47.71
77192;BME280;66172;48.526;8.078;2024-03-29T05:24:08;97588.63;;;11.28;46.69
77192;BME280;66172;48.526;8.078;2024-03-29T05:26:34;97583.56;;;11.44;45.38
77192;BME280;66172;48.526;8.078;2024-03-29T05:29:00;97594.84;;;11.49;45.44
77192;BME280;66172;48.526;8.078;2024-03-29T05:31:26;97608.84;;;11.37;46.80
77192;BME280;66172;48.526;8.078;2024-03-29T05:33:52;97610.00;;;11.33;47.07
77192;BME280;66172;48.526;8.078;2024-03-29T05:36:18;97613.13;;;11.45;46.34
77192;BME280;66172;48.526;8.078;2024-03-29T05:38:45;97621.66;;;11.30;47.58
77192;BME280;66172;48.526;8.078;2024-03-29T05:41:11;97634.09;;;11.24;48.15
77192;BME280;66172;48.526;8.078;2024-03-29T05:43:40;97634.09;;;11.20;48.30
77192;BME280;66172;48.526;8.078;2024-03-29T05:46:06;97647.31;;;11.15;48.35
77192;BME280;66172;48.526;8.078;2024-03-29T05:48:32;97657.72;;;10.91;51.97
77192;BME280;66172;48.526;8.078;2024-03-29T05:50:58;97681.75;;;10.75;53.98
77192;BME280;66172;48.526;8.078;2024-03-29T05:53:24;97683.66;;;10.68;54.90
77192;BME280;66172;48.526;8.078;2024-03-29T05:55:50;97692.94;;;10.60;56.22
77192;BME280;66172;48.526;8.078;2024-03-29T05:58:15;97697.97;;;10.58;57.55
77192;BME280;66172;48.526;8.078;2024-03-29T06:00:46;97705.94;;;10.26;59.55
77192;BME280;66172;48.526;8.078;2024-03-29T06:03:12;97713.69;;;10.20;60.27
77192;BME280;66172;48.526;8.078;2024-03-29T06:05:39;97719.09;;;10.17;60.52
77192;BME280;66172;48.526;8.078;2024-03-29T06:08:06;97714.81;;;10.16;61.07
77192;BME280;66172;48.526;8.078;2024-03-29T06:10:32;97720.63;;;10.18;60.84
77192;BME280;66172;48.526;8.078;2024-03-29T06:12:57;97727.63;;;10.19;61.76
77192;BME280;66172;48.526;8.078;2024-03-29T06:15:33;97721.84;;;10.20;62.23
77192;BME280;66172;48.526;8.078;2024-03-29T06:18:18;97721.88;;;10.27;61.05
77192;BME280;66172;48.526;8.078;2024-03-29T06:20:45;97721.91;;;10.31;61.29
77192;BME280;66172;48.526;8.078;2024-03-29T06:23:11;97713.75;;;10.31;61.23
77192;BME280;66172;48.526;8.078;2024-03-29T06:25:38;97715.72;;;10.34;59.83
77192;BME280;66172;48.526;8.078;2024-03-29T06:28:04;97719.50;;;10.22;60.90
77192;BME280;66172;48.526;8.078;2024-03-29T06:30:30;97700.78;;;10.14;60.18
77192;BME280;66172;48.526;8.078;2024-03-29T06:32:56;97706.19;;;10.10;59.85
77192;BME280;66172;48.526;8.078;2024-03-29T06:35:23;97701.25;;;10.19;61.76
77192;BME280;66172;48.526;8.078;2024-03-29T06:37:49;97690.75;;;10.18;62.04
77192;BME280;66172;48.526;8.078;2024-03-29T06:40:15;97696.94;;;10.15;60.71
77192;BME280;66172;48.526;8.078;2024-03-29T06:42:41;97692.16;;;9.97;62.00
77192;BME280;66172;48.526;8.078;2024-03-29T06:45:07;97689.88;;;10.07;61.96
77192;BME280;66172;48.526;8.078;2024-03-29T06:47:34;97686.38;;;10.02;63.04
77192;BME280;66172;48.526;8.078;2024-03-29T06:50:00;97698.25;;;9.84;62.79
77192;BME280;66172;48.526;8.078;2024-03-29T06:52:26;97705.50;;;9.69;65.32
77192;BME280;66172;48.526;8.078;2024-03-29T06:54:52;97704.22;;;9.56;67.09
77192;BME280;66172;48.526;8.078;2024-03-29T06:57:18;97709.22;;;9.14;71.41
77192;BME280;66172;48.526;8.078;2024-03-29T06:59:48;97705.50;;;8.92;73.21
77192;BME280;66172;48.526;8.078;2024-03-29T07:02:14;97684.56;;;8.59;75.42
77192;BME280;66172;48.526;8.078;2024-03-29T07:04:40;97685.13;;;8.72;78.56
77192;BME280;66172;48.526;8.078;2024-03-29T07:07:06;97682.06;;;9.10;76.86
77192;BME280;66172;48.526;8.078;2024-03-29T07:09:32;97686.63;;;9.02;76.29
77192;BME280;66172;48.526;8.078;2024-03-29T07:11:58;97682.66;;;9.30;76.58
77192;BME280;66172;48.526;8.078;2024-03-29T07:14:24;97692.72;;;9.29;76.73
77192;BME280;66172;48.526;8.078;2024-03-29T07:16:52;97716.81;;;9.34;77.72
77192;BME280;66172;48.526;8.078;2024-03-29T07:19:18;97732.34;;;8.44;83.23
77192;BME280;66172;48.526;8.078;2024-03-29T07:21:48;97729.06;;;8.06;88.88
77192;BME280;66172;48.526;8.078;2024-03-29T07:24:13;97724.53;;;7.87;91.10
77192;BME280;66172;48.526;8.078;2024-03-29T07:26:40;97737.63;;;7.85;92.43
77192;BME280;66172;48.526;8.078;2024-03-29T07:29:07;97722.78;;;7.98;91.64
77192;BME280;66172;48.526;8.078;2024-03-29T07:31:33;97701.22;;;8.31;88.53
77192;BME280;66172;48.526;8.078;2024-03-29T07:34:00;97712.34;;;8.52;89.30
77192;BME280;66172;48.526;8.078;2024-03-29T07:36:26;97733.16;;;8.75;93.54
77192;BME280;66172;48.526;8.078;2024-03-29T07:38:58;97735.56;;;8.83;93.58
77192;BME280;66172;48.526;8.078;2024-03-29T07:41:24;97728.22;;;8.84;94.00
77192;BME280;66172;48.526;8.078;2024-03-29T07:43:55;97762.16;;;9.00;93.84
77192;BME280;66172;48.526;8.078;2024-03-29T07:46:27;97759.06;;;9.02;94.62
77192;BME280;66172;48.526;8.078;2024-03-29T07:48:53;97763.81;;;9.12;94.50
77192;BME280;66172;48.526;8.078;2024-03-29T07:51:19;97764.94;;;9.08;95.62
77192;BME280;66172;48.526;8.078;2024-03-29T07:53:45;97771.88;;;9.05;96.20
77192;BME280;66172;48.526;8.078;2024-03-29T07:56:11;97787.69;;;8.99;96.67
77192;BME280;66172;48.526;8.078;2024-03-29T07:58:37;97784.09;;;9.22;96.82
77192;BME280;66172;48.526;8.078;2024-03-29T08:01:03;97802.91;;;9.08;99.86
77192;BME280;66172;48.526;8.078;2024-03-29T08:03:29;97803.13;;;9.25;100.00
77192;BME280;66172;48.526;8.078;2024-03-29T08:06:01;97806.63;;;9.29;100.00
77192;BME280;66172;48.526;8.078;2024-03-29T08:08:31;97817.06;;;9.27;100.00
77192;BME280;66172;48.526;8.078;2024-03-29T08:10:57;97822.66;;;9.41;100.00
77192;BME280;66172;48.526;8.078;2024-03-29T08:13:25;97824.06;;;9.62;100.00
77192;BME280;66172;48.526;8.078;2024-03-29T08:16:01;97822.88;;;9.59;100.00
77192;BME280;66172;48.526;8.078;2024-03-29T08:18:28;97805.09;;;9.65;100.00
77192;BME280;66172;48.526;8.078;2024-03-29T08:20:54;97833.91;;;9.77;100.00
77192;BME280;66172;48.526;8.078;2024-03-29T08:23:24;97828.81;;;9.72;100.00
77192;BME280;66172;48.526;8.078;2024-03-29T08:25:50;97830.38;;;9.73;100.00
77192;BME280;66172;48.526;8.078;2024-03-29T08:28:21;97838.16;;;9.74;100.00
77192;BME280;66172;48.526;8.078;2024-03-29T08:30:57;97845.91;;;9.76;100.00
77192;BME280;66172;48.526;8.078;2024-03-29T08:33:23;97850.63;;;9.82;100.00
77192;BME280;66172;48.526;8.078;2024-03-29T08:35:49;97853.91;;;9.98;100.00
77192;BME280;66172;48.526;8.078;2024-03-29T08:38:14;97846.94;;;10.01;100.00
77192;BME280;66172;48.526;8.078;2024-03-29T08:40:41;97858.13;;;9.96;100.00
77192;BME280;66172;48.526;8.078;2024-03-29T08:43:09;97851.97;;;9.99;100.00
77192;BME280;66172;48.526;8.078;2024-03-29T08:45:35;97849.31;;;10.02;100.00
77192;BME280;66172;48.526;8.078;2024-03-29T08:48:09;97857.09;;;10.08;100.00
77192;BME280;66172;48.526;8.078;2024-03-29T08:50:35;97851.75;;;10.15;100.00
77192;BME280;66172;48.526;8.078;2024-03-29T08:53:03;97837.88;;;10.23;100.00
77192;BME280;66172;48.526;8.078;2024-03-29T08:55:33;97836.63;;;10.17;100.00
77192;BME280;66172;48.526;8.078;2024-03-29T08:58:00;97830.81;;;10.15;100.00
77192;BME280;66172;48.526;8.078;2024-03-29T09:00:30;97816.00;;;10.09;100.00
77192;BME280;66172;48.526;8.078;2024-03-29T09:02:57;97814.84;;;10.14;100.00
77192;BME280;66172;48.526;8.078;2024-03-29T09:05:23;97818.03;;;10.16;100.00
77192;BME280;66172;48.526;8.078;2024-03-29T09:07:50;97821.25;;;10.32;100.00
77192;BME280;66172;48.526;8.078;2024-03-29T09:10:16;97830.19;;;10.32;100.00
77192;BME280;66172;48.526;8.078;2024-03-29T09:12:42;97813.09;;;10.32;100.00
77192;BME280;66172;48.526;8.078;2024-03-29T09:15:08;97844.91;;;10.31;100.00
77192;BME280;66172;48.526;8.078;2024-03-29T09:17:44;97845.19;;;10.16;100.00
77192;BME280;66172;48.526;8.078;2024-03-29T09:20:10;97799.41;;;10.18;100.00
77192;BME280;66172;48.526;8.078;2024-03-29T09:22:36;97848.38;;;10.28;100.00
77192;BME280;66172;48.526;8.078;2024-03-29T09:25:03;97834.16;;;10.45;100.00
77192;BME280;66172;48.526;8.078;2024-03-29T09:27:29;97822.94;;;10.47;100.00
77192;BME280;66172;48.526;8.078;2024-03-29T09:29:55;97809.38;;;10.50;100.00
77192;BME280;66172;48.526;8.078;2024-03-29T09:32:24;97821.88;;;10.62;100.00
77192;BME280;66172;48.526;8.078;2024-03-29T09:34:50;97822.31;;;10.71;100.00
77192;BME280;66172;48.526;8.078;2024-03-29T09:37:16;97827.00;;;10.74;100.00
77192;BME280;66172;48.526;8.078;2024-03-29T09:39:43;97818.94;;;10.92;100.00
77192;BME280;66172;48.526;8.078;2024-03-29T09:42:15;97823.63;;;10.95;100.00
77192;BME280;66172;48.526;8.078;2024-03-29T09:44:44;97836.09;;;11.03;100.00
77192;BME280;66172;48.526;8.078;2024-03-29T09:47:14;97835.72;;;11.01;100.00
77192;BME280;66172;48.526;8.078;2024-03-29T09:49:41;97801.53;;;11.03;100.00
77192;BME280;66172;48.526;8.078;2024-03-29T09:52:11;97819.84;;;11.14;100.00
77192;BME280;66172;48.526;8.078;2024-03-29T09:54:38;97829.59;;;11.22;100.00
77192;BME280;66172;48.526;8.078;2024-03-29T09:57:04;97829.66;;;11.32;100.00
77192;BME280;66172;48.526;8.078;2024-03-29T09:59:30;97820.34;;;11.44;100.00
77192;BME280;66172;48.526;8.078;2024-03-29T10:01:58;97802.91;;;11.59;100.00
77192;BME280;66172;48.526;8.078;2024-03-29T10:04:24;97798.69;;;11.83;100.00
77192;BME280;66172;48.526;8.078;2024-03-29T10:06:51;97809.25;;;12.13;100.00
77192;BME280;66172;48.526;8.078;2024-03-29T10:09:17;97816.66;;;12.40;100.00
77192;BME280;66172;48.526;8.078;2024-03-29T10:11:44;97816.63;;;12.65;98.90
77192;BME280;66172;48.526;8.078;2024-03-29T10:14:11;97808.00;;;12.88;96.58
77192;BME280;66172;48.526;8.078;2024-03-29T10:16:37;97791.09;;;13.42;93.52
77192;BME280;66172;48.526;8.078;2024-03-29T10:19:04;97779.16;;;13.81;91.71
77192;BME280;66172;48.526;8.078;2024-03-29T10:21:30;97779.88;;;14.43;87.04
77192;BME280;66172;48.526;8.078;2024-03-29T10:23:56;97784.16;;;14.85;84.00
77192;BME280;66172;48.526;8.078;2024-03-29T10:26:22;97773.34;;;15.09;84.76
77192;BME280;66172;48.526;8.078;2024-03-29T10:28:48;97777.22;;;15.11;80.44
77192;BME280;66172;48.526;8.078;2024-03-29T10:31:15;97767.81;;;15.16;81.25
77192;BME280;66172;48.526;8.078;2024-03-29T10:33:44;97769.63;;;15.26;82.94
77192;BME280;66172;48.526;8.078;2024-03-29T10:36:10;97769.75;;;15.45;81.39
77192;BME280;66172;48.526;8.078;2024-03-29T10:38:38;97775.06;;;15.60;83.31
77192;BME280;66172;48.526;8.078;2024-03-29T10:41:04;97763.00;;;15.57;81.79
77192;BME280;66172;48.526;8.078;2024-03-29T10:43:33;97768.75;;;15.93;81.26
77192;BME280;66172;48.526;8.078;2024-03-29T10:46:02;97760.00;;;16.25;79.75
77192;BME280;66172;48.526;8.078;2024-03-29T10:48:30;97759.00;;;16.62;76.17
77192;BME280;66172;48.526;8.078;2024-03-29T10:50:58;97763.97;;;16.70;75.46
77192;BME280;66172;48.526;8.078;2024-03-29T10:53:25;97757.75;;;16.86;73.97
77192;BME280;66172;48.526;8.078;2024-03-29T10:55:57;97762.59;;;16.78;73.85
77192;BME280;66172;48.526;8.078;2024-03-29T10:58:29;97749.41;;;16.50;72.21
77192;BME280;66172;48.526;8.078;2024-03-29T11:00:57;97751.94;;;16.61;73.01
77192;BME280;66172;48.526;8.078;2024-03-29T11:03:38;97758.63;;;16.83;73.82
77192;BME280;66172;48.526;8.078;2024-03-29T11:06:06;97757.63;;;16.50;72.82
77192;BME280;66172;48.526;8.078;2024-03-29T11:08:34;97760.56;;;16.63;72.92
77192;BME280;66172;48.526;8.078;2024-03-29T11:11:04;97765.41;;;16.75;74.14
77192;BME280;66172;48.526;8.078;2024-03-29T11:16:05;97779.78;;;16.82;78.52
77192;BME280;66172;48.526;8.078;2024-03-29T11:18:31;97784.47;;;16.62;80.19
77192;BME280;66172;48.526;8.078;2024-03-29T11:20:58;97791.44;;;16.43;80.48
77192;BME280;66172;48.526;8.078;2024-03-29T11:23:26;97787.56;;;16.41;81.62
77192;BME280;66172;48.526;8.078;2024-03-29T11:25:56;97791.81;;;16.45;81.48
77192;BME280;66172;48.526;8.078;2024-03-29T11:28:31;97786.75;;;16.67;80.11
77192;BME280;66172;48.526;8.078;2024-03-29T11:35:56;97768.84;;;17.22;77.05
77192;BME280;66172;48.526;8.078;2024-03-29T11:38:29;97779.19;;;17.14;76.25
77192;BME280;66172;48.526;8.078;2024-03-29T11:41:06;97789.31;;;16.78;78.31
77192;BME280;66172;48.526;8.078;2024-03-29T11:43:33;97788.72;;;16.67;78.20
77192;BME280;66172;48.526;8.078;2024-03-29T11:46:00;97784.41;;;16.42;79.28
77192;BME280;66172;48.526;8.078;2024-03-29T11:48:28;97788.09;;;16.32;80.12
77192;BME280;66172;48.526;8.078;2024-03-29T11:50:54;97782.34;;;16.23;80.40
77192;BME280;66172;48.526;8.078;2024-03-29T11:53:20;97773.84;;;16.18;81.04
77192;BME280;66172;48.526;8.078;2024-03-29T11:55:47;97758.63;;;16.13;81.49
77192;BME280;66172;48.526;8.078;2024-03-29T11:58:14;97748.00;;;16.15;81.05
77192;BME280;66172;48.526;8.078;2024-03-29T12:00:41;97753.19;;;16.10;80.54
77192;BME280;66172;48.526;8.078;2024-03-29T12:03:10;97725.53;;;16.01;80.88
77192;BME280;66172;48.526;8.078;2024-03-29T12:05:36;97749.19;;;15.91;82.35
77192;BME280;66172;48.526;8.078;2024-03-29T12:08:02;97753.53;;;15.88;82.41
77192;BME280;66172;48.526;8.078;2024-03-29T12:10:29;97761.19;;;15.74;84.01
77192;BME280;66172;48.526;8.078;2024-03-29T12:12:59;97735.44;;;15.68;84.44
77192;BME280;66172;48.526;8.078;2024-03-29T12:15:27;97751.41;;;15.73;83.92
77192;BME280;66172;48.526;8.078;2024-03-29T12:18:01;97754.38;;;15.55;86.83
77192;BME280;66172;48.526;8.078;2024-03-29T12:20:34;97727.25;;;15.04;90.72
77192;BME280;66172;48.526;8.078;2024-03-29T12:23:02;97737.06;;;15.01;90.03
77192;BME280;66172;48.526;8.078;2024-03-29T12:25:29;97754.66;;;15.34;88.97
77192;BME280;66172;48.526;8.078;2024-03-29T12:27:55;97738.16;;;15.41;88.99
77192;BME280;66172;48.526;8.078;2024-03-29T12:30:21;97739.50;;;15.56;86.29
77192;BME280;66172;48.526;8.078;2024-03-29T12:32:47;97750.31;;;15.36;86.37
77192;BME280;66172;48.526;8.078;2024-03-29T12:35:15;97749.50;;;15.39;86.05
77192;BME280;66172;48.526;8.078;2024-03-29T12:37:50;97755.59;;;15.20;84.07
77192;BME280;66172;48.526;8.078;2024-03-29T12:40:17;97782.06;;;15.34;84.70
77192;BME280;66172;48.526;8.078;2024-03-29T12:42:50;97790.16;;;15.44;84.41
77192;BME280;66172;48.526;8.078;2024-03-29T12:45:20;97770.13;;;15.47;83.39
77192;BME280;66172;48.526;8.078;2024-03-29T12:47:47;97740.38;;;15.49;82.51
77192;BME280;66172;48.526;8.078;2024-03-29T12:50:19;97748.84;;;15.59;81.48
77192;BME280;66172;48.526;8.078;2024-03-29T12:52:46;97776.25;;;15.89;80.37
77192;BME280;66172;48.526;8.078;2024-03-29T12:55:12;97792.09;;;16.01;82.32
77192;BME280;66172;48.526;8.078;2024-03-29T12:57:37;97802.41;;;16.20;77.42
77192;BME280;66172;48.526;8.078;2024-03-29T13:00:06;97823.09;;;16.25;78.92
77192;BME280;66172;48.526;8.078;2024-03-29T13:02:35;97818.56;;;16.38;82.03
77192;BME280;66172;48.526;8.078;2024-03-29T13:05:03;97812.19;;;16.44;84.39
77192;BME280;66172;48.526;8.078;2024-03-29T13:07:33;97813.88;;;16.62;83.49
77192;BME280;66172;48.526;8.078;2024-03-29T13:09:59;97811.88;;;16.66;83.06